Bookmark and Share
Track history (hours):
 

Kennedy

Last reported at 2014-Apr-15 14:32 UTC. Time now 2014-Apr-18 10:35 UTC.
Position N 51°36' E 004°07'.

Length 15 m.

Type: Sailing vessel. MMSI: 245144000.

NotesDate/timePositionNaut miles runAvg speedWind from/ knotsBaromVisibWave heightAir tempDewpointWater temp
2014-Apr-15 14:32N 51°36' E 004°07'5 0.8
2014-Apr-15 08:34N 51°36' E 003°58'3 0.6
2014-Apr-15 03:30N 51°39' E 003°55'0 0.0
2014-Apr-15 02:33N 51°39' E 003°55'0 0.0
2014-Apr-15 01:33N 51°39' E 003°55'0 0.0
2014-Apr-15 00:33N 51°39' E 003°55'0 0.0
2014-Apr-14 23:33N 51°39' E 003°55'0 0.0
2014-Apr-14 22:30N 51°39' E 003°55'0 0.0
2014-Apr-14 21:33N 51°39' E 003°55'0 0.0
2014-Apr-14 15:33N 51°39' E 003°55'0 0.0
2014-Apr-14 13:33N 51°39' E 003°55'3 0.9
2014-Apr-14 10:33N 51°38' E 003°51'5 1.7
2014-Apr-14 07:31N 51°38' E 003°43'25 1.6
2014-Apr-13 15:33N 51°30' E 003°05'7 7.2
2014-Apr-13 14:33N 51°26' E 002°55'8 8.0
2014-Apr-13 13:33N 51°21' E 002°45'8 8.0
2014-Apr-13 12:33N 51°17' E 002°34'9 8.9
2014-Apr-13 11:34N 51°12' E 002°23'9 9.0
2014-Apr-13 10:33N 51°08' E 002°10'60 2.5
2014-Apr-12 10:20N 50°50' E 000°39'5 7.0
2014-Apr-12 09:33N 50°48' E 000°31'7 7.2
2014-Apr-12 08:33N 50°46' E 000°20'  
2014-Apr-09 13:33N 50°43' W 000°31'8 7.9
2014-Apr-09 12:33N 50°42' W 000°43'10 7.7
2014-Apr-09 11:16N 50°43' W 000°59'5 7.5
2014-Apr-09 10:33N 50°45' W 001°07'7 6.7
2014-Apr-09 09:33N 50°46' W 001°17'6 5.8
2014-Apr-09 08:33N 50°44' W 001°25'4 3.7
2014-Apr-09 07:33N 50°43' W 001°31'0 0.0
2014-Apr-09 06:33N 50°43' W 001°31'0 0.0
2014-Apr-09 05:27N 50°43' W 001°31'0 0.0
2014-Apr-09 04:33N 50°43' W 001°31'0 0.0
2014-Apr-09 03:33N 50°43' W 001°31'0 0.0
2014-Apr-09 02:33N 50°43' W 001°31'0 0.0
2014-Apr-09 01:33N 50°43' W 001°31'0 0.0
2014-Apr-09 00:33N 50°43' W 001°31'0 0.0
2014-Apr-08 23:33N 50°43' W 001°31'0 0.0
2014-Apr-08 22:33N 50°43' W 001°31'0 0.0
2014-Apr-08 21:24N 50°43' W 001°31'  

Dump ship's entire track history

sailing weather and tide predictions

Kennedy — PB7633 — position and weather